CST,Max TemperatureF,Mean TemperatureF,Min TemperatureF,Max Dew PointF,MeanDew PointF,Min DewpointF,Max Humidity, Mean Humidity, Min Humidity, Max Sea Level PressureIn, Mean Sea Level PressureIn, Min Sea Level PressureIn, Max VisibilityMiles, Mean VisibilityMiles, Min VisibilityMiles, Max Wind SpeedMPH, Mean Wind SpeedMPH, Max Gust SpeedMPH,PrecipitationIn, CloudCover, Events, WindDirDegrees
2012-1-1,34,27,19,32,18,10,96,77,58,30.38,30.13,29.74,10,10,6,44,32,55,T,6,Snow,313
2012-1-2,20,14,7,13,8,3,83,70,56,30.56,30.44,30.33,10,9,2,37,20,46,T,4,Snow,316
2012-1-3,33,19,5,20,11,3,88,66,43,30.51,30.17,29.93,10,10,10,28,11,36,0.00,0,,185
2012-1-4,40,33,25,28,25,20,88,71,54,30.16,30.07,29.93,10,10,10,21,12,25,0.00,0,,275
2012-1-5,57,41,24,34,28,24,85,62,39,29.99,29.83,29.69,10,10,10,21,10,26,0.00,0,,247
2012-1-6,46,39,32,30,28,24,82,68,53,29.95,29.81,29.67,10,10,10,21,12,28,0.00,1,,300
2012-1-7,38,30,21,25,23,18,96,78,59,30.28,30.14,29.96,10,10,7,23,9,30,0.00,2,,312
2012-1-8,42,29,15,25,21,11,96,73,50,30.35,30.29,30.20,10,9,6,14,7,16,0.00,0,,230
2012-1-9,47,38,28,31,26,23,78,64,49,30.17,30.04,29.96,10,10,10,24,15,30,0.00,0,,248
2012-1-10,55,39,22,31,26,20,92,65,38,30.01,29.87,29.68,10,10,10,20,8,23,0.00,0,,214
2012-1-11,38,26,13,33,18,3,96,82,67,29.86,29.75,29.61,10,6,1,37,21,46,T,6,Snow,320
2012-1-12,13,11,9,7,4,1,80,71,61,29.90,29.81,29.74,10,5,0,37,27,45,T,8,Snow,325
2012-1-13,14,8,2,5,2,-2,83,75,66,30.06,30.01,29.85,10,8,2,24,10,29,T,6,Snow,294
2012-1-14,28,14,-1,25,13,-6,96,78,59,30.17,30.10,30.03,10,8,3,13,4,15,T,5,Snow,210
2012-1-15,40,24,8,27,21,7,92,73,54,30.17,29.94,29.74,10,10,8,30,13,37,0.00,0,,156
2012-1-16,35,28,21,27,23,12,92,80,68,29.87,29.78,29.71,10,9,7,21,13,25,0.00,2,,350
2012-1-17,21,9,-4,12,6,-6,84,71,58,30.36,30.12,29.84,10,6,1,30,18,35,0.05,5,Snow,321
2012-1-18,27,11,-5,19,6,-9,86,72,57,30.33,29.98,29.77,10,8,1,32,15,38,T,3,Snow,229
2012-1-19,4,-1,-7,-9,-13,-17,75,61,46,30.25,30.17,30.01,10,10,6,26,11,32,0.00,2,,334
2012-1-20,6,-1,-8,0,-4,-12,87,72,56,30.31,30.14,30.03,10,4,0,16,8,20,0.34,5,Snow,86
2012-1-21,20,2,-17,18,3,-19,92,85,77,30.29,30.09,29.81,10,7,2,29,12,36,T,5,,142
2012-1-22,33,26,18,32,24,15,100,92,84,29.82,29.59,29.40,6,2,0,25,16,32,0.03,8,Fog-Rain-Snow,138
2012-1-23,32,27,21,31,21,16,92,74,56,30.01,29.64,29.39,10,3,0,30,20,36,0.16,8,Fog-Snow,307
2012-1-24,24,21,18,19,17,15,92,66,40,30.33,30.22,29.98,10,9,8,17,7,23,0.00,8,,238
2012-1-25,33,27,21,28,23,19,92,87,81,30.35,30.10,29.93,9,5,4,20,11,23,0.00,6,,152
2012-1-26,37,30,23,30,26,18,92,81,70,29.90,29.81,29.73,10,8,4,24,13,29,0.00,2,,275
2012-1-27,34,26,17,30,24,14,89,74,59,30.02,29.89,29.82,10,8,1,31,14,40,T,6,Snow,244
2012-1-28,31,24,17,25,17,10,77,68,58,30.12,30.05,29.97,10,9,1,21,15,25,T,2,Snow,265
2012-1-29,28,22,15,23,16,10,92,77,62,30.24,30.10,29.96,10,9,4,26,12,32,T,5,Snow,302
2012-1-30,42,33,23,32,26,19,85,68,51,29.94,29.76,29.68,10,10,10,23,11,26,0.00,1,,184
2012-1-31,44,39,33,37,32,30,92,76,60,30.00,29.80,29.64,10,9,4,23,15,29,0.00,1,,271